KEMV

Emporia-Greensville Regional Airport

Emporia, Virginia, USA
METAR KEMV 181956Z AUTO 22004KT SCT048 13/02 A3008 RMK AO2
Observed Flight Rules
Jan-18 @ 19:56 UTC (26 minutes ago)
Wind Clouds
220° at 4 knots
  • Scattered at 4,800' AGL
Temperatures Readings
Current 13°C / 55°F
Dewpoint 2°C / 36°F
Humidity 47%
Altimeter 30.08" Hg
Pressure 1018.62 hPa
Elevation 39
METAR KEMV 181956Z AUTO 22004KT SCT048 13/02 A3008 RMK AO2
Observed Flight Rules
Jan-18 @ 19:56 UTC
(26 minutes ago)
Wind
220° at 4 knots
Clouds
  • Scattered at 4,800' AGL
Temperature Dewpoint
13°C / 55°F 2°C / 36°F
Humidity Altimeter Pressure
47% 30.08" Hg 1018.62 hPa